sensor_id;sensor_type;location;lat;lon;timestamp;temperature;humidity
7900;DHT22;3995;50.856;4.404;2023-02-19T00:01:07;13.70;71.80
7900;DHT22;3995;50.856;4.404;2023-02-19T00:03:36;13.80;71.90
7900;DHT22;3995;50.856;4.404;2023-02-19T00:06:04;13.80;72.00
7900;DHT22;3995;50.856;4.404;2023-02-19T00:08:32;13.80;71.90
7900;DHT22;3995;50.856;4.404;2023-02-19T00:11:01;13.80;71.80
7900;DHT22;3995;50.856;4.404;2023-02-19T00:13:28;13.70;71.70
7900;DHT22;3995;50.856;4.404;2023-02-19T00:15:55;13.70;71.70
7900;DHT22;3995;50.856;4.404;2023-02-19T00:18:24;13.70;71.70
7900;DHT22;3995;50.856;4.404;2023-02-19T00:20:55;13.70;71.70
7900;DHT22;3995;50.856;4.404;2023-02-19T00:23:22;13.70;71.70
7900;DHT22;3995;50.856;4.404;2023-02-19T00:25:50;13.70;71.60
7900;DHT22;3995;50.856;4.404;2023-02-19T00:28:17;13.70;72.10
7900;DHT22;3995;50.856;4.404;2023-02-19T00:30:44;13.70;71.40
7900;DHT22;3995;50.856;4.404;2023-02-19T00:33:12;13.70;71.40
7900;DHT22;3995;50.856;4.404;2023-02-19T00:35:40;13.70;71.30
7900;DHT22;3995;50.856;4.404;2023-02-19T00:38:08;13.70;71.20
7900;DHT22;3995;50.856;4.404;2023-02-19T00:40:35;13.70;71.20
7900;DHT22;3995;50.856;4.404;2023-02-19T00:43:03;13.70;71.00
7900;DHT22;3995;50.856;4.404;2023-02-19T00:45:30;13.70;70.90
7900;DHT22;3995;50.856;4.404;2023-02-19T00:47:59;13.70;70.80
7900;DHT22;3995;50.856;4.404;2023-02-19T00:50:26;13.70;70.80
7900;DHT22;3995;50.856;4.404;2023-02-19T00:52:55;13.70;70.80
7900;DHT22;3995;50.856;4.404;2023-02-19T00:55:22;13.70;70.60
7900;DHT22;3995;50.856;4.404;2023-02-19T00:57:49;13.70;70.60
7900;DHT22;3995;50.856;4.404;2023-02-19T01:00:17;13.80;70.70
7900;DHT22;3995;50.856;4.404;2023-02-19T01:02:44;13.80;70.60
7900;DHT22;3995;50.856;4.404;2023-02-19T01:05:11;13.80;70.50
7900;DHT22;3995;50.856;4.404;2023-02-19T01:07:39;13.80;70.40
7900;DHT22;3995;50.856;4.404;2023-02-19T01:10:07;13.80;70.30
7900;DHT22;3995;50.856;4.404;2023-02-19T01:12:35;13.80;70.20
7900;DHT22;3995;50.856;4.404;2023-02-19T01:15:02;13.80;70.20
7900;DHT22;3995;50.856;4.404;2023-02-19T01:17:30;13.80;70.10
7900;DHT22;3995;50.856;4.404;2023-02-19T01:19:57;13.80;70.00
7900;DHT22;3995;50.856;4.404;2023-02-19T01:22:24;13.80;69.90
7900;DHT22;3995;50.856;4.404;2023-02-19T01:24:52;13.80;69.90
7900;DHT22;3995;50.856;4.404;2023-02-19T01:27:20;13.70;69.80
7900;DHT22;3995;50.856;4.404;2023-02-19T01:29:48;13.70;69.80
7900;DHT22;3995;50.856;4.404;2023-02-19T01:32:15;13.70;69.70
7900;DHT22;3995;50.856;4.404;2023-02-19T01:34:43;13.80;69.70
7900;DHT22;3995;50.856;4.404;2023-02-19T01:37:10;13.80;69.60
7900;DHT22;3995;50.856;4.404;2023-02-19T01:39:37;13.70;69.50
7900;DHT22;3995;50.856;4.404;2023-02-19T01:42:06;13.70;69.40
7900;DHT22;3995;50.856;4.404;2023-02-19T01:47:56;13.70;69.20
7900;DHT22;3995;50.856;4.404;2023-02-19T01:50:27;13.70;69.00
7900;DHT22;3995;50.856;4.404;2023-02-19T01:52:59;13.70;69.00
7900;DHT22;3995;50.856;4.404;2023-02-19T01:55:30;13.70;68.90
7900;DHT22;3995;50.856;4.404;2023-02-19T01:57:58;13.70;68.90
7900;DHT22;3995;50.856;4.404;2023-02-19T02:00:26;13.70;68.80
7900;DHT22;3995;50.856;4.404;2023-02-19T02:02:56;13.70;68.70
7900;DHT22;3995;50.856;4.404;2023-02-19T02:05:34;13.70;68.40
7900;DHT22;3995;50.856;4.404;2023-02-19T02:08:02;13.70;68.30
7900;DHT22;3995;50.856;4.404;2023-02-19T02:10:47;13.70;68.30
7900;DHT22;3995;50.856;4.404;2023-02-19T02:13:16;13.70;68.30
7900;DHT22;3995;50.856;4.404;2023-02-19T02:15:50;13.70;68.10
7900;DHT22;3995;50.856;4.404;2023-02-19T02:18:29;13.70;68.10
7900;DHT22;3995;50.856;4.404;2023-02-19T02:21:10;13.70;68.00
7900;DHT22;3995;50.856;4.404;2023-02-19T02:23:55;13.70;67.90
7900;DHT22;3995;50.856;4.404;2023-02-19T02:26:44;13.70;67.90
7900;DHT22;3995;50.856;4.404;2023-02-19T02:32:10;13.70;67.90
7900;DHT22;3995;50.856;4.404;2023-02-19T02:34:45;13.60;67.80
7900;DHT22;3995;50.856;4.404;2023-02-19T02:37:15;13.70;67.70
7900;DHT22;3995;50.856;4.404;2023-02-19T02:39:44;13.60;67.50
7900;DHT22;3995;50.856;4.404;2023-02-19T02:42:12;13.60;67.30
7900;DHT22;3995;50.856;4.404;2023-02-19T02:44:55;13.60;67.30
7900;DHT22;3995;50.856;4.404;2023-02-19T02:47:45;13.60;67.20
7900;DHT22;3995;50.856;4.404;2023-02-19T02:50:17;13.60;67.20
7900;DHT22;3995;50.856;4.404;2023-02-19T02:52:48;13.60;67.00
7900;DHT22;3995;50.856;4.404;2023-02-19T02:55:36;13.60;66.90
7900;DHT22;3995;50.856;4.404;2023-02-19T02:58:06;13.60;66.80
7900;DHT22;3995;50.856;4.404;2023-02-19T03:00:34;13.60;66.70
7900;DHT22;3995;50.856;4.404;2023-02-19T03:03:36;13.60;66.60
7900;DHT22;3995;50.856;4.404;2023-02-19T03:06:06;13.60;66.60
7900;DHT22;3995;50.856;4.404;2023-02-19T03:08:37;13.60;66.50
7900;DHT22;3995;50.856;4.404;2023-02-19T03:11:09;13.60;66.50
7900;DHT22;3995;50.856;4.404;2023-02-19T03:13:57;13.60;66.50
7900;DHT22;3995;50.856;4.404;2023-02-19T03:16:45;13.60;66.50
7900;DHT22;3995;50.856;4.404;2023-02-19T03:19:36;13.60;66.40
7900;DHT22;3995;50.856;4.404;2023-02-19T03:22:11;13.60;66.10
7900;DHT22;3995;50.856;4.404;2023-02-19T03:24:44;13.60;66.00
7900;DHT22;3995;50.856;4.404;2023-02-19T03:27:29;13.60;66.00
7900;DHT22;3995;50.856;4.404;2023-02-19T03:30:02;13.50;65.90
7900;DHT22;3995;50.856;4.404;2023-02-19T03:32:33;13.50;65.80
7900;DHT22;3995;50.856;4.404;2023-02-19T03:35:08;13.60;65.90
7900;DHT22;3995;50.856;4.404;2023-02-19T03:37:40;13.60;65.80
7900;DHT22;3995;50.856;4.404;2023-02-19T03:40:09;13.60;65.90
7900;DHT22;3995;50.856;4.404;2023-02-19T03:42:42;13.60;65.80
7900;DHT22;3995;50.856;4.404;2023-02-19T03:45:33;13.60;65.70
7900;DHT22;3995;50.856;4.404;2023-02-19T03:48:17;13.60;65.50
7900;DHT22;3995;50.856;4.404;2023-02-19T03:50:50;13.60;65.70
7900;DHT22;3995;50.856;4.404;2023-02-19T03:53:27;13.60;65.60
7900;DHT22;3995;50.856;4.404;2023-02-19T03:56:04;13.60;65.40
7900;DHT22;3995;50.856;4.404;2023-02-19T03:58:37;13.60;65.20
7900;DHT22;3995;50.856;4.404;2023-02-19T04:01:08;13.50;65.10
7900;DHT22;3995;50.856;4.404;2023-02-19T04:03:39;13.50;65.10
7900;DHT22;3995;50.856;4.404;2023-02-19T04:06:13;13.50;65.10
7900;DHT22;3995;50.856;4.404;2023-02-19T04:08:45;13.50;65.10
7900;DHT22;3995;50.856;4.404;2023-02-19T04:11:14;13.50;65.00
7900;DHT22;3995;50.856;4.404;2023-02-19T04:13:44;13.50;64.90
7900;DHT22;3995;50.856;4.404;2023-02-19T04:16:16;13.50;64.80
7900;DHT22;3995;50.856;4.404;2023-02-19T04:18:47;13.50;64.70
7900;DHT22;3995;50.856;4.404;2023-02-19T04:21:18;13.50;64.70
7900;DHT22;3995;50.856;4.404;2023-02-19T04:23:46;13.50;64.70
7900;DHT22;3995;50.856;4.404;2023-02-19T04:26:14;13.50;64.70
7900;DHT22;3995;50.856;4.404;2023-02-19T04:28:43;13.50;64.70
7900;DHT22;3995;50.856;4.404;2023-02-19T04:31:10;13.50;64.60
7900;DHT22;3995;50.856;4.404;2023-02-19T04:33:37;13.50;64.70
7900;DHT22;3995;50.856;4.404;2023-02-19T04:36:08;13.50;64.60
7900;DHT22;3995;50.856;4.404;2023-02-19T04:38:37;13.50;64.50
7900;DHT22;3995;50.856;4.404;2023-02-19T04:41:04;13.50;64.60
7900;DHT22;3995;50.856;4.404;2023-02-19T04:43:32;13.50;64.50
7900;DHT22;3995;50.856;4.404;2023-02-19T04:45:59;13.50;64.50
7900;DHT22;3995;50.856;4.404;2023-02-19T04:48:27;13.50;64.40
7900;DHT22;3995;50.856;4.404;2023-02-19T04:50:54;13.50;64.50
7900;DHT22;3995;50.856;4.404;2023-02-19T04:53:22;13.50;64.50
7900;DHT22;3995;50.856;4.404;2023-02-19T04:55:51;13.50;64.50
7900;DHT22;3995;50.856;4.404;2023-02-19T04:58:19;13.50;64.50
7900;DHT22;3995;50.856;4.404;2023-02-19T05:00:51;13.50;64.50
7900;DHT22;3995;50.856;4.404;2023-02-19T05:03:18;13.50;64.30
7900;DHT22;3995;50.856;4.404;2023-02-19T05:05:45;13.50;64.40
7900;DHT22;3995;50.856;4.404;2023-02-19T05:08:13;13.50;64.40
7900;DHT22;3995;50.856;4.404;2023-02-19T05:10:40;13.50;64.40
7900;DHT22;3995;50.856;4.404;2023-02-19T05:13:09;13.50;64.40
7900;DHT22;3995;50.856;4.404;2023-02-19T05:15:36;13.50;64.30
7900;DHT22;3995;50.856;4.404;2023-02-19T05:18:03;13.50;64.30
7900;DHT22;3995;50.856;4.404;2023-02-19T05:20:30;13.50;64.40
7900;DHT22;3995;50.856;4.404;2023-02-19T05:22:57;13.50;64.40
7900;DHT22;3995;50.856;4.404;2023-02-19T05:25:24;13.50;64.40
7900;DHT22;3995;50.856;4.404;2023-02-19T05:27:51;13.50;64.30
7900;DHT22;3995;50.856;4.404;2023-02-19T05:30:41;13.50;64.30
7900;DHT22;3995;50.856;4.404;2023-02-19T05:33:08;13.50;64.30
7900;DHT22;3995;50.856;4.404;2023-02-19T05:35:39;13.50;64.30
7900;DHT22;3995;50.856;4.404;2023-02-19T05:38:21;13.50;64.30
7900;DHT22;3995;50.856;4.404;2023-02-19T05:40:50;13.50;64.10
7900;DHT22;3995;50.856;4.404;2023-02-19T05:43:17;13.50;64.20
7900;DHT22;3995;50.856;4.404;2023-02-19T05:45:46;13.50;64.30
7900;DHT22;3995;50.856;4.404;2023-02-19T05:48:13;13.50;64.10
7900;DHT22;3995;50.856;4.404;2023-02-19T05:50:40;13.50;64.10
7900;DHT22;3995;50.856;4.404;2023-02-19T05:53:08;13.50;64.00
7900;DHT22;3995;50.856;4.404;2023-02-19T05:55:36;13.50;63.90
7900;DHT22;3995;50.856;4.404;2023-02-19T05:58:03;13.50;63.90
7900;DHT22;3995;50.856;4.404;2023-02-19T06:00:32;13.40;63.80
7900;DHT22;3995;50.856;4.404;2023-02-19T06:03:01;13.40;63.80
7900;DHT22;3995;50.856;4.404;2023-02-19T06:05:39;13.40;63.80
7900;DHT22;3995;50.856;4.404;2023-02-19T06:08:06;13.50;63.80
7900;DHT22;3995;50.856;4.404;2023-02-19T06:10:33;13.40;63.80
7900;DHT22;3995;50.856;4.404;2023-02-19T06:13:01;13.40;63.80
7900;DHT22;3995;50.856;4.404;2023-02-19T06:15:28;13.40;63.90
7900;DHT22;3995;50.856;4.404;2023-02-19T06:17:55;13.40;63.90
7900;DHT22;3995;50.856;4.404;2023-02-19T06:20:24;13.40;63.80
7900;DHT22;3995;50.856;4.404;2023-02-19T06:22:51;13.40;63.70
7900;DHT22;3995;50.856;4.404;2023-02-19T06:25:19;13.40;63.80
7900;DHT22;3995;50.856;4.404;2023-02-19T06:27:46;13.40;63.70
7900;DHT22;3995;50.856;4.404;2023-02-19T06:30:14;13.40;63.60
7900;DHT22;3995;50.856;4.404;2023-02-19T06:32:41;13.40;63.60
7900;DHT22;3995;50.856;4.404;2023-02-19T06:35:08;13.40;63.50
7900;DHT22;3995;50.856;4.404;2023-02-19T06:37:37;13.40;63.50
7900;DHT22;3995;50.856;4.404;2023-02-19T06:40:05;13.40;63.50
7900;DHT22;3995;50.856;4.404;2023-02-19T06:42:35;13.50;63.60
7900;DHT22;3995;50.856;4.404;2023-02-19T06:45:02;13.50;63.50
7900;DHT22;3995;50.856;4.404;2023-02-19T06:47:30;13.50;63.40
7900;DHT22;3995;50.856;4.404;2023-02-19T06:49:57;13.50;63.30
7900;DHT22;3995;50.856;4.404;2023-02-19T06:52:25;13.50;63.20
7900;DHT22;3995;50.856;4.404;2023-02-19T06:54:53;13.50;63.10
7900;DHT22;3995;50.856;4.404;2023-02-19T06:57:20;13.50;63.10
7900;DHT22;3995;50.856;4.404;2023-02-19T06:59:48;13.50;63.00
7900;DHT22;3995;50.856;4.404;2023-02-19T07:02:15;13.50;62.80
7900;DHT22;3995;50.856;4.404;2023-02-19T07:04:42;13.50;62.80
7900;DHT22;3995;50.856;4.404;2023-02-19T07:07:10;13.50;62.80
7900;DHT22;3995;50.856;4.404;2023-02-19T07:09:37;13.50;62.70
7900;DHT22;3995;50.856;4.404;2023-02-19T07:12:06;13.50;62.70
7900;DHT22;3995;50.856;4.404;2023-02-19T07:14:34;13.50;62.70
7900;DHT22;3995;50.856;4.404;2023-02-19T07:17:02;13.50;62.60
7900;DHT22;3995;50.856;4.404;2023-02-19T07:19:29;13.50;62.60
7900;DHT22;3995;50.856;4.404;2023-02-19T07:21:57;13.50;62.60
7900;DHT22;3995;50.856;4.404;2023-02-19T07:24:24;13.50;62.50
7900;DHT22;3995;50.856;4.404;2023-02-19T07:26:51;13.50;62.40
7900;DHT22;3995;50.856;4.404;2023-02-19T07:29:20;13.50;62.30
7900;DHT22;3995;50.856;4.404;2023-02-19T07:31:47;13.50;62.30
7900;DHT22;3995;50.856;4.404;2023-02-19T07:34:14;13.50;62.30
7900;DHT22;3995;50.856;4.404;2023-02-19T07:36:41;13.50;62.30
7900;DHT22;3995;50.856;4.404;2023-02-19T07:39:12;13.50;62.40
7900;DHT22;3995;50.856;4.404;2023-02-19T07:41:40;13.50;62.40
7900;DHT22;3995;50.856;4.404;2023-02-19T07:44:07;13.50;62.50
7900;DHT22;3995;50.856;4.404;2023-02-19T07:46:56;13.50;62.40
7900;DHT22;3995;50.856;4.404;2023-02-19T07:49:23;13.50;62.40
7900;DHT22;3995;50.856;4.404;2023-02-19T07:51:50;13.50;62.30
7900;DHT22;3995;50.856;4.404;2023-02-19T07:54:17;13.50;62.30
7900;DHT22;3995;50.856;4.404;2023-02-19T07:56:45;13.50;62.30
7900;DHT22;3995;50.856;4.404;2023-02-19T07:59:12;13.60;62.40
7900;DHT22;3995;50.856;4.404;2023-02-19T08:01:40;13.60;62.40
7900;DHT22;3995;50.856;4.404;2023-02-19T08:04:26;13.60;62.30
7900;DHT22;3995;50.856;4.404;2023-02-19T08:06:53;13.60;62.30
7900;DHT22;3995;50.856;4.404;2023-02-19T08:09:21;13.60;62.20
7900;DHT22;3995;50.856;4.404;2023-02-19T08:11:48;13.60;62.20
7900;DHT22;3995;50.856;4.404;2023-02-19T08:14:32;13.60;62.00
7900;DHT22;3995;50.856;4.404;2023-02-19T08:17:00;13.60;62.00
7900;DHT22;3995;50.856;4.404;2023-02-19T08:19:29;13.60;62.70
7900;DHT22;3995;50.856;4.404;2023-02-19T08:21:56;13.60;62.00
7900;DHT22;3995;50.856;4.404;2023-02-19T08:24:23;13.60;62.00
7900;DHT22;3995;50.856;4.404;2023-02-19T08:26:51;13.60;62.00
7900;DHT22;3995;50.856;4.404;2023-02-19T08:29:18;13.60;62.00
7900;DHT22;3995;50.856;4.404;2023-02-19T08:31:45;13.60;62.10
7900;DHT22;3995;50.856;4.404;2023-02-19T08:34:12;13.60;62.20
7900;DHT22;3995;50.856;4.404;2023-02-19T08:36:41;13.60;62.20
7900;DHT22;3995;50.856;4.404;2023-02-19T08:39:08;13.60;62.10
7900;DHT22;3995;50.856;4.404;2023-02-19T08:41:36;13.60;62.20
7900;DHT22;3995;50.856;4.404;2023-02-19T08:44:03;13.60;62.10
7900;DHT22;3995;50.856;4.404;2023-02-19T08:46:30;13.60;62.10
7900;DHT22;3995;50.856;4.404;2023-02-19T08:48:58;13.60;62.20
7900;DHT22;3995;50.856;4.404;2023-02-19T08:51:25;13.60;62.20
7900;DHT22;3995;50.856;4.404;2023-02-19T08:53:54;13.60;62.40
7900;DHT22;3995;50.856;4.404;2023-02-19T08:56:21;13.60;62.70
7900;DHT22;3995;50.856;4.404;2023-02-19T08:58:48;13.60;62.90
7900;DHT22;3995;50.856;4.404;2023-02-19T09:01:16;13.60;63.00
7900;DHT22;3995;50.856;4.404;2023-02-19T09:03:44;13.60;63.00
7900;DHT22;3995;50.856;4.404;2023-02-19T09:06:13;13.60;62.90
7900;DHT22;3995;50.856;4.404;2023-02-19T09:08:50;13.60;63.00
7900;DHT22;3995;50.856;4.404;2023-02-19T09:11:19;13.60;63.10
7900;DHT22;3995;50.856;4.404;2023-02-19T09:13:46;13.60;63.20
7900;DHT22;3995;50.856;4.404;2023-02-19T09:16:14;13.60;63.30
7900;DHT22;3995;50.856;4.404;2023-02-19T09:18:41;13.60;63.40
7900;DHT22;3995;50.856;4.404;2023-02-19T09:21:10;13.60;63.50
7900;DHT22;3995;50.856;4.404;2023-02-19T09:23:37;13.60;63.60
7900;DHT22;3995;50.856;4.404;2023-02-19T09:26:05;13.60;63.60
7900;DHT22;3995;50.856;4.404;2023-02-19T09:28:36;13.60;63.60
7900;DHT22;3995;50.856;4.404;2023-02-19T09:31:07;13.60;63.60
7900;DHT22;3995;50.856;4.404;2023-02-19T09:33:35;13.60;63.80
7900;DHT22;3995;50.856;4.404;2023-02-19T09:36:03;13.60;63.60
7900;DHT22;3995;50.856;4.404;2023-02-19T09:38:30;13.60;63.60
7900;DHT22;3995;50.856;4.404;2023-02-19T09:40:58;13.60;63.60
7900;DHT22;3995;50.856;4.404;2023-02-19T09:43:27;13.60;63.60
7900;DHT22;3995;50.856;4.404;2023-02-19T09:46:01;13.60;63.50
7900;DHT22;3995;50.856;4.404;2023-02-19T09:48:29;13.60;63.30
7900;DHT22;3995;50.856;4.404;2023-02-19T09:50:57;13.60;63.30
7900;DHT22;3995;50.856;4.404;2023-02-19T09:53:28;13.60;63.40
7900;DHT22;3995;50.856;4.404;2023-02-19T09:55:58;13.70;63.40
7900;DHT22;3995;50.856;4.404;2023-02-19T09:58:29;13.70;63.20
7900;DHT22;3995;50.856;4.404;2023-02-19T10:01:02;13.70;62.90
7900;DHT22;3995;50.856;4.404;2023-02-19T10:03:32;13.70;62.80
7900;DHT22;3995;50.856;4.404;2023-02-19T10:06:06;13.70;62.80
7900;DHT22;3995;50.856;4.404;2023-02-19T10:08:35;13.80;62.60
7900;DHT22;3995;50.856;4.404;2023-02-19T10:11:04;13.80;62.50
7900;DHT22;3995;50.856;4.404;2023-02-19T10:13:33;13.80;62.30
7900;DHT22;3995;50.856;4.404;2023-02-19T10:16:04;13.80;62.10
7900;DHT22;3995;50.856;4.404;2023-02-19T10:18:38;13.90;62.10
7900;DHT22;3995;50.856;4.404;2023-02-19T10:21:07;13.90;62.10
7900;DHT22;3995;50.856;4.404;2023-02-19T10:23:38;13.90;61.90
7900;DHT22;3995;50.856;4.404;2023-02-19T10:26:06;13.90;61.60
7900;DHT22;3995;50.856;4.404;2023-02-19T10:28:34;13.90;61.40
7900;DHT22;3995;50.856;4.404;2023-02-19T10:31:06;13.90;61.30
7900;DHT22;3995;50.856;4.404;2023-02-19T10:33:48;14.00;61.40
7900;DHT22;3995;50.856;4.404;2023-02-19T10:36:26;14.00;61.40
7900;DHT22;3995;50.856;4.404;2023-02-19T10:38:54;14.00;61.30
7900;DHT22;3995;50.856;4.404;2023-02-19T10:41:24;14.00;61.10
7900;DHT22;3995;50.856;4.404;2023-02-19T10:43:54;14.00;60.90
7900;DHT22;3995;50.856;4.404;2023-02-19T10:46:25;14.00;60.90
7900;DHT22;3995;50.856;4.404;2023-02-19T10:48:54;14.10;60.90
7900;DHT22;3995;50.856;4.404;2023-02-19T10:51:30;14.10;60.90
7900;DHT22;3995;50.856;4.404;2023-02-19T10:54:04;14.10;60.80
7900;DHT22;3995;50.856;4.404;2023-02-19T10:56:31;14.10;60.80
7900;DHT22;3995;50.856;4.404;2023-02-19T10:59:20;14.10;60.70
7900;DHT22;3995;50.856;4.404;2023-02-19T11:01:58;14.20;60.70
7900;DHT22;3995;50.856;4.404;2023-02-19T11:04:26;14.20;60.60
7900;DHT22;3995;50.856;4.404;2023-02-19T11:06:54;14.20;61.30
7900;DHT22;3995;50.856;4.404;2023-02-19T11:09:26;14.20;60.80
7900;DHT22;3995;50.856;4.404;2023-02-19T11:11:54;14.20;60.50
7900;DHT22;3995;50.856;4.404;2023-02-19T11:14:24;14.20;61.00
7900;DHT22;3995;50.856;4.404;2023-02-19T11:16:53;14.30;60.30
7900;DHT22;3995;50.856;4.404;2023-02-19T11:19:28;14.30;60.10
7900;DHT22;3995;50.856;4.404;2023-02-19T11:21:58;14.30;60.00
7900;DHT22;3995;50.856;4.404;2023-02-19T11:24:29;14.30;59.80
7900;DHT22;3995;50.856;4.404;2023-02-19T11:27:00;14.40;59.70
7900;DHT22;3995;50.856;4.404;2023-02-19T11:29:28;14.30;59.70
7900;DHT22;3995;50.856;4.404;2023-02-19T11:32:24;14.40;59.80
7900;DHT22;3995;50.856;4.404;2023-02-19T11:35:16;14.40;59.70
7900;DHT22;3995;50.856;4.404;2023-02-19T11:37:54;14.40;59.50
7900;DHT22;3995;50.856;4.404;2023-02-19T11:40:29;14.40;59.50
7900;DHT22;3995;50.856;4.404;2023-02-19T11:43:05;14.40;59.50
7900;DHT22;3995;50.856;4.404;2023-02-19T11:45:41;14.40;59.40
7900;DHT22;3995;50.856;4.404;2023-02-19T11:51:31;14.40;59.20
7900;DHT22;3995;50.856;4.404;2023-02-19T11:54:12;14.40;59.20
7900;DHT22;3995;50.856;4.404;2023-02-19T11:56:43;14.40;59.20
7900;DHT22;3995;50.856;4.404;2023-02-19T11:59:19;14.40;59.30
7900;DHT22;3995;50.856;4.404;2023-02-19T12:02:06;14.40;59.00
7900;DHT22;3995;50.856;4.404;2023-02-19T12:05:03;14.50;59.20
7900;DHT22;3995;50.856;4.404;2023-02-19T12:11:13;14.50;59.20
7900;DHT22;3995;50.856;4.404;2023-02-19T12:14:00;14.40;59.30
7900;DHT22;3995;50.856;4.404;2023-02-19T12:16:36;14.50;59.10
7900;DHT22;3995;50.856;4.404;2023-02-19T12:19:20;14.40;58.90
7900;DHT22;3995;50.856;4.404;2023-02-19T12:22:10;14.50;58.60
7900;DHT22;3995;50.856;4.404;2023-02-19T12:27:58;14.50;58.40
7900;DHT22;3995;50.856;4.404;2023-02-19T12:30:38;14.40;58.50
7900;DHT22;3995;50.856;4.404;2023-02-19T12:33:28;14.40;58.50
7900;DHT22;3995;50.856;4.404;2023-02-19T12:36:05;14.40;58.20
7900;DHT22;3995;50.856;4.404;2023-02-19T12:38:42;14.40;58.20
7900;DHT22;3995;50.856;4.404;2023-02-19T12:41:19;14.40;58.10
7900;DHT22;3995;50.856;4.404;2023-02-19T12:43:54;14.40;58.10
7900;DHT22;3995;50.856;4.404;2023-02-19T12:46:28;14.40;58.20
7900;DHT22;3995;50.856;4.404;2023-02-19T12:49:00;14.40;58.20
7900;DHT22;3995;50.856;4.404;2023-02-19T12:51:36;14.40;58.30
7900;DHT22;3995;50.856;4.404;2023-02-19T12:54:17;14.40;58.20
7900;DHT22;3995;50.856;4.404;2023-02-19T12:56:54;14.40;58.20
7900;DHT22;3995;50.856;4.404;2023-02-19T12:59:25;14.50;58.40
7900;DHT22;3995;50.856;4.404;2023-02-19T13:01:59;14.50;58.40
7900;DHT22;3995;50.856;4.404;2023-02-19T13:04:35;14.50;58.50
7900;DHT22;3995;50.856;4.404;2023-02-19T13:07:08;14.50;58.60
7900;DHT22;3995;50.856;4.404;2023-02-19T13:09:42;14.50;58.50
7900;DHT22;3995;50.856;4.404;2023-02-19T13:12:16;14.50;58.60
7900;DHT22;3995;50.856;4.404;2023-02-19T13:14:48;14.50;58.30
7900;DHT22;3995;50.856;4.404;2023-02-19T13:17:22;14.50;58.20
7900;DHT22;3995;50.856;4.404;2023-02-19T13:19:55;14.50;58.00
7900;DHT22;3995;50.856;4.404;2023-02-19T13:22:28;14.50;57.80
7900;DHT22;3995;50.856;4.404;2023-02-19T13:25:12;14.50;57.80
7900;DHT22;3995;50.856;4.404;2023-02-19T13:28:01;14.50;57.80
7900;DHT22;3995;50.856;4.404;2023-02-19T13:30:39;14.50;57.60
7900;DHT22;3995;50.856;4.404;2023-02-19T13:33:21;14.50;57.60
7900;DHT22;3995;50.856;4.404;2023-02-19T13:36:09;14.50;57.60
7900;DHT22;3995;50.856;4.404;2023-02-19T13:38:40;14.50;57.70
7900;DHT22;3995;50.856;4.404;2023-02-19T13:41:17;14.40;57.80
7900;DHT22;3995;50.856;4.404;2023-02-19T13:43:54;14.50;57.80
7900;DHT22;3995;50.856;4.404;2023-02-19T13:46:22;14.50;57.80
7900;DHT22;3995;50.856;4.404;2023-02-19T13:49:24;14.40;58.00
7900;DHT22;3995;50.856;4.404;2023-02-19T13:51:53;14.50;58.00
7900;DHT22;3995;50.856;4.404;2023-02-19T13:54:23;14.40;58.00
7900;DHT22;3995;50.856;4.404;2023-02-19T13:57:22;14.50;57.90
7900;DHT22;3995;50.856;4.404;2023-02-19T13:59:52;14.50;57.70
7900;DHT22;3995;50.856;4.404;2023-02-19T14:02:30;14.40;57.90
7900;DHT22;3995;50.856;4.404;2023-02-19T14:04:59;14.50;57.80
7900;DHT22;3995;50.856;4.404;2023-02-19T14:07:50;14.50;57.70
7900;DHT22;3995;50.856;4.404;2023-02-19T14:10:51;14.50;57.20
7900;DHT22;3995;50.856;4.404;2023-02-19T14:16:58;14.50;57.10
7900;DHT22;3995;50.856;4.404;2023-02-19T14:22:45;14.40;57.60
7900;DHT22;3995;50.856;4.404;2023-02-19T14:25:29;14.50;58.00
7900;DHT22;3995;50.856;4.404;2023-02-19T14:28:01;14.40;58.30
7900;DHT22;3995;50.856;4.404;2023-02-19T14:30:31;14.40;58.40
7900;DHT22;3995;50.856;4.404;2023-02-19T14:33:01;14.40;58.30
7900;DHT22;3995;50.856;4.404;2023-02-19T14:35:34;14.40;58.10
7900;DHT22;3995;50.856;4.404;2023-02-19T14:38:03;14.40;58.00
7900;DHT22;3995;50.856;4.404;2023-02-19T14:40:36;14.40;58.10
7900;DHT22;3995;50.856;4.404;2023-02-19T14:43:08;14.40;57.90
7900;DHT22;3995;50.856;4.404;2023-02-19T14:45:42;14.40;58.00
7900;DHT22;3995;50.856;4.404;2023-02-19T14:48:17;14.40;58.00
7900;DHT22;3995;50.856;4.404;2023-02-19T14:50:48;14.40;57.80
7900;DHT22;3995;50.856;4.404;2023-02-19T14:53:16;14.40;58.00
7900;DHT22;3995;50.856;4.404;2023-02-19T14:55:47;14.40;57.90
7900;DHT22;3995;50.856;4.404;2023-02-19T14:58:18;14.40;57.80
7900;DHT22;3995;50.856;4.404;2023-02-19T15:00:47;14.40;57.60
7900;DHT22;3995;50.856;4.404;2023-02-19T15:03:34;14.30;57.50
7900;DHT22;3995;50.856;4.404;2023-02-19T15:06:04;14.40;57.50
7900;DHT22;3995;50.856;4.404;2023-02-19T15:08:41;14.30;57.70
7900;DHT22;3995;50.856;4.404;2023-02-19T15:11:18;14.30;57.70
7900;DHT22;3995;50.856;4.404;2023-02-19T15:13:49;14.30;57.70
7900;DHT22;3995;50.856;4.404;2023-02-19T15:16:20;14.30;57.60
7900;DHT22;3995;50.856;4.404;2023-02-19T15:18:50;14.20;57.60
7900;DHT22;3995;50.856;4.404;2023-02-19T15:21:22;14.30;57.50
7900;DHT22;3995;50.856;4.404;2023-02-19T15:23:52;14.20;57.50
7900;DHT22;3995;50.856;4.404;2023-02-19T15:26:21;14.20;57.50
7900;DHT22;3995;50.856;4.404;2023-02-19T15:28:56;14.20;57.50
7900;DHT22;3995;50.856;4.404;2023-02-19T15:31:24;14.30;57.40
7900;DHT22;3995;50.856;4.404;2023-02-19T15:33:53;14.20;58.00
7900;DHT22;3995;50.856;4.404;2023-02-19T15:36:28;14.20;57.50
7900;DHT22;3995;50.856;4.404;2023-02-19T15:38:58;14.30;57.40
7900;DHT22;3995;50.856;4.404;2023-02-19T15:41:30;14.20;57.40
7900;DHT22;3995;50.856;4.404;2023-02-19T15:44:18;14.20;57.40
7900;DHT22;3995;50.856;4.404;2023-02-19T15:46:49;14.20;57.40
7900;DHT22;3995;50.856;4.404;2023-02-19T15:49:21;14.10;57.40
7900;DHT22;3995;50.856;4.404;2023-02-19T15:51:53;14.10;57.30
7900;DHT22;3995;50.856;4.404;2023-02-19T15:54:23;14.10;57.40
7900;DHT22;3995;50.856;4.404;2023-02-19T15:56:52;14.10;57.40
7900;DHT22;3995;50.856;4.404;2023-02-19T15:59:23;14.10;57.50
7900;DHT22;3995;50.856;4.404;2023-02-19T16:01:52;14.10;57.50
7900;DHT22;3995;50.856;4.404;2023-02-19T16:04:22;14.00;57.40
7900;DHT22;3995;50.856;4.404;2023-02-19T16:06:52;14.00;57.50
7900;DHT22;3995;50.856;4.404;2023-02-19T16:09:21;14.00;57.60
7900;DHT22;3995;50.856;4.404;2023-02-19T16:11:50;14.00;57.70
7900;DHT22;3995;50.856;4.404;2023-02-19T16:14:22;14.00;57.70
7900;DHT22;3995;50.856;4.404;2023-02-19T16:16:51;14.00;57.80
7900;DHT22;3995;50.856;4.404;2023-02-19T16:19:23;13.90;57.70
7900;DHT22;3995;50.856;4.404;2023-02-19T16:21:51;13.90;57.80
7900;DHT22;3995;50.856;4.404;2023-02-19T16:24:26;13.90;57.80
7900;DHT22;3995;50.856;4.404;2023-02-19T16:26:54;14.00;57.90
7900;DHT22;3995;50.856;4.404;2023-02-19T16:29:24;13.90;57.90
7900;DHT22;3995;50.856;4.404;2023-02-19T16:31:55;13.90;57.90
7900;DHT22;3995;50.856;4.404;2023-02-19T16:34:31;13.90;57.90
7900;DHT22;3995;50.856;4.404;2023-02-19T16:37:01;13.90;57.90
7900;DHT22;3995;50.856;4.404;2023-02-19T16:39:28;13.90;58.00
7900;DHT22;3995;50.856;4.404;2023-02-19T16:42:15;13.90;57.90
7900;DHT22;3995;50.856;4.404;2023-02-19T16:44:43;13.90;57.80
7900;DHT22;3995;50.856;4.404;2023-02-19T16:47:34;13.80;57.80
7900;DHT22;3995;50.856;4.404;2023-02-19T16:50:12;13.90;57.70
7900;DHT22;3995;50.856;4.404;2023-02-19T16:52:50;13.80;57.80
7900;DHT22;3995;50.856;4.404;2023-02-19T16:55:18;13.80;57.70